Flight Number: AVA1731 Duration: 3:15
Departure: Berlin Airport (EDDB) at 11:45 Distance: 927.425 Nm
Arrival: Istanbul / Ataturk (LTBA) at 15:00 Equipment: A321

Weather Information
Berlin-Schoenefeld, Germany (EDDB) 52-23N 013-31E 50M Jun 19, 2024 - 10:20 AM EDT / 2024.06.19 1420 UTC
Wind: from the NW (310 degrees) at 7 MPH (6 KT):0
Visibility: greater than 7 mile(s):0
Sky conditions: mostly clear Weather: light rain Temperature: 62 F (17 C) Dew Point: 59 F (15 C) Relative Humidity: 88% Pressure (altimeter): 30.03 in. Hg (1017 hPa)
ob: EDDB 191420Z AUTO 31006KT 9999 -RA FEW016 17/15 Q1017 NOSIG cycle: 14
Sunrise: 02:48 Sunset: 19:26 (UTC)

Istanbul / Ataturk, Turkey (LTBA) 40-58N 028-49E 37M Jun 19, 2024 - 10:20 AM EDT / 2024.06.19 1420 UTC
Wind: from the NE (040 degrees) at 25 MPH (22 KT):0
Visibility: greater than 7 mile(s):0 Temperature: 84 F (29 C) Dew Point: 59 F (15 C) Relative Humidity: 42% Pressure (altimeter): 30.00 in. Hg (1016 hPa)
ob: LTBA 191420Z 04022KT CAVOK 29/15 Q1016 cycle: 14
Sunrise: 02:36 Sunset: 17:36 (UTC)

TAF:2024/06/19 12:03 TAF LTBA 191040Z 1912/2012 04017G27KT CAVOK BECMG 1916/1919 04011KT TEMPO 1923/2003 SCT016 BECMG 2005/2007 04015G25KT

Previous Pireps for this route
Date Flightnr Aircraft Flight time Fuel used Landing rate On time
2017-03-08AVA1731A32102.2414075-225Yes
2017-09-20AVA1731A32102.3115087-265Yes
(pireps marked green are flown by you)

Route map